createdAt,value
2018-10-12T00:00:21.350Z,22.88
2018-10-12T00:00:59.079Z,22.91
2018-10-12T00:01:36.812Z,22.91
2018-10-12T00:02:14.321Z,22.91
2018-10-12T00:02:52.018Z,22.91
2018-10-12T00:03:29.536Z,22.89
2018-10-12T00:04:07.127Z,22.91
2018-10-12T00:04:44.563Z,22.92
2018-10-12T00:05:25.969Z,22.87
2018-10-12T00:06:03.566Z,22.92
2018-10-12T00:06:41.264Z,22.91
2018-10-12T00:07:18.853Z,22.91
2018-10-12T00:07:56.407Z,22.91
2018-10-12T00:08:34.113Z,22.92
2018-10-12T00:09:11.739Z,22.90
2018-10-12T00:09:49.438Z,22.91
2018-10-12T00:10:27.102Z,22.90
2018-10-12T00:11:04.786Z,22.91
2018-10-12T00:11:42.505Z,22.91
2018-10-12T00:12:20.094Z,22.90
2018-10-12T00:12:57.613Z,22.91
2018-10-12T00:13:35.306Z,22.89
2018-10-12T00:14:12.853Z,22.90
2018-10-12T00:14:50.565Z,22.91
2018-10-12T00:15:28.119Z,22.91
2018-10-12T00:16:05.604Z,22.90
2018-10-12T00:16:43.269Z,22.90
2018-10-12T00:17:20.770Z,22.91
2018-10-12T00:17:58.397Z,22.91
2018-10-12T00:18:36.066Z,22.91
2018-10-12T00:19:13.639Z,22.90
2018-10-12T00:19:51.363Z,22.91
2018-10-12T00:20:28.870Z,22.91
2018-10-12T00:21:09.862Z,22.90
2018-10-12T00:21:47.311Z,22.91
2018-10-12T00:22:24.829Z,22.91
2018-10-12T00:23:02.625Z,22.90
2018-10-12T00:23:40.209Z,22.89
2018-10-12T00:24:17.745Z,22.90
2018-10-12T00:24:55.190Z,22.90
2018-10-12T00:25:32.766Z,22.90
2018-10-12T00:26:10.479Z,22.91
2018-10-12T00:26:48.282Z,22.91
2018-10-12T00:27:26.057Z,22.91
2018-10-12T00:28:03.554Z,22.91
2018-10-12T00:28:41.210Z,22.91
2018-10-12T00:29:18.821Z,22.90
2018-10-12T00:29:56.421Z,22.90
2018-10-12T00:30:34.039Z,22.90
2018-10-12T00:31:11.544Z,22.91
2018-10-12T00:31:49.022Z,22.90
2018-10-12T00:32:26.787Z,22.89
2018-10-12T00:33:04.491Z,22.90
2018-10-12T00:33:42.225Z,22.89
2018-10-12T00:34:19.987Z,22.90
2018-10-12T00:34:57.525Z,22.89
2018-10-12T00:35:35.177Z,22.89
2018-10-12T00:36:12.993Z,22.89
2018-10-12T00:36:51.833Z,22.89
2018-10-12T00:37:29.206Z,22.89
2018-10-12T00:38:06.754Z,22.90
2018-10-12T00:38:44.344Z,22.89
2018-10-12T00:39:22.056Z,22.89
2018-10-12T00:40:00.156Z,22.88
2018-10-12T00:40:37.825Z,22.89
2018-10-12T00:41:15.396Z,22.89
2018-10-12T00:41:56.975Z,22.86
2018-10-12T00:42:34.610Z,22.89
2018-10-12T00:43:11.972Z,22.90
2018-10-12T00:43:49.675Z,22.88
2018-10-12T00:44:27.191Z,22.89
2018-10-12T00:45:04.753Z,22.89
2018-10-12T00:45:42.520Z,22.89
2018-10-12T00:46:20.341Z,22.88
2018-10-12T00:46:57.904Z,22.89
2018-10-12T00:47:35.764Z,22.89
2018-10-12T00:48:13.441Z,22.89
2018-10-12T00:48:51.161Z,22.89
2018-10-12T00:49:28.781Z,22.88
2018-10-12T00:50:06.496Z,22.90
2018-10-12T00:50:44.283Z,22.89
2018-10-12T00:51:21.978Z,22.89
2018-10-12T00:51:59.689Z,22.88
2018-10-12T00:52:37.281Z,22.90
2018-10-12T00:53:15.152Z,22.88
2018-10-12T00:53:52.908Z,22.89
2018-10-12T00:54:30.538Z,22.89
2018-10-12T00:55:08.085Z,22.89
2018-10-12T00:55:45.878Z,22.89
2018-10-12T00:56:23.527Z,22.89
2018-10-12T00:57:01.091Z,22.89
2018-10-12T00:57:38.724Z,22.89
2018-10-12T00:58:16.483Z,22.89
2018-10-12T00:58:53.945Z,22.89
2018-10-12T00:59:31.775Z,22.88
2018-10-12T01:00:09.474Z,22.89
2018-10-12T01:00:47.082Z,22.89
2018-10-12T01:01:24.607Z,22.89
2018-10-12T01:02:02.213Z,22.88
2018-10-12T01:02:39.813Z,22.88
2018-10-12T01:03:17.457Z,22.90
2018-10-12T01:03:54.926Z,22.89
2018-10-12T01:04:32.844Z,22.89
2018-10-12T01:05:10.428Z,22.89
2018-10-12T01:05:48.057Z,22.88
2018-10-12T01:06:25.687Z,22.88
2018-10-12T01:07:44.974Z,22.89
2018-10-12T01:08:22.527Z,22.88
2018-10-12T01:09:00.056Z,22.89
2018-10-12T01:09:37.626Z,22.88
2018-10-12T01:10:15.225Z,22.89
2018-10-12T01:10:52.823Z,22.89
2018-10-12T01:11:30.575Z,22.88
2018-10-12T01:12:08.203Z,22.89
2018-10-12T01:12:45.651Z,22.88
2018-10-12T01:13:23.560Z,22.89
2018-10-12T01:14:01.054Z,22.89
2018-10-12T01:14:38.554Z,22.89
2018-10-12T01:15:16.063Z,22.89
2018-10-12T01:15:53.760Z,22.88
2018-10-12T01:16:31.429Z,22.89
2018-10-12T01:17:08.889Z,22.88
2018-10-12T01:17:46.472Z,22.89
2018-10-12T01:18:24.090Z,22.88
2018-10-12T01:19:01.711Z,22.89
2018-10-12T01:19:39.388Z,22.89
2018-10-12T01:20:17.051Z,22.88
2018-10-12T01:20:54.600Z,22.89
2018-10-12T01:21:32.300Z,22.88
2018-10-12T01:22:09.644Z,22.88
2018-10-12T01:22:51.066Z,22.88
2018-10-12T01:23:28.495Z,22.89
2018-10-12T01:24:06.091Z,22.89
2018-10-12T01:24:43.947Z,22.88
2018-10-12T01:25:21.656Z,22.88
2018-10-12T01:25:59.429Z,22.88
2018-10-12T01:26:37.212Z,22.87
2018-10-12T01:27:14.769Z,22.89
2018-10-12T01:28:34.852Z,22.88
2018-10-12T01:29:12.470Z,22.88
2018-10-12T01:29:50.302Z,22.87
2018-10-12T01:30:27.934Z,22.88
2018-10-12T01:31:05.463Z,22.88
2018-10-12T01:31:42.921Z,22.88
2018-10-12T01:32:20.475Z,22.88
2018-10-12T01:32:58.161Z,22.88
2018-10-12T01:33:35.675Z,22.88
2018-10-12T01:34:13.234Z,22.89
2018-10-12T01:34:50.853Z,22.89
2018-10-12T01:35:28.381Z,22.88
2018-10-12T01:36:06.056Z,22.88
2018-10-12T01:36:43.948Z,22.89
2018-10-12T01:37:21.482Z,22.89
2018-10-12T01:37:59.165Z,22.89
2018-10-12T01:38:36.870Z,22.89
2018-10-12T01:39:14.532Z,22.88
2018-10-12T01:39:52.231Z,22.87
2018-10-12T01:40:29.877Z,22.88
2018-10-12T01:41:07.496Z,22.88
2018-10-12T01:41:45.116Z,22.88
2018-10-12T01:42:22.753Z,22.88
2018-10-12T01:43:00.455Z,22.88
2018-10-12T01:43:37.953Z,22.88
2018-10-12T01:44:15.514Z,22.88
2018-10-12T01:44:53.103Z,22.87
2018-10-12T01:45:30.621Z,22.86
2018-10-12T01:46:08.450Z,22.87
2018-10-12T01:46:46.042Z,22.88
2018-10-12T01:47:23.854Z,22.88
2018-10-12T01:48:01.497Z,22.88
2018-10-12T01:48:38.903Z,22.88
2018-10-12T01:49:16.610Z,22.88
2018-10-12T01:49:54.260Z,22.87
2018-10-12T01:50:31.966Z,22.87
2018-10-12T01:51:09.514Z,22.88
2018-10-12T01:51:47.199Z,22.87
2018-10-12T01:52:24.782Z,22.88
2018-10-12T01:53:02.393Z,22.88
2018-10-12T01:53:39.962Z,22.88
2018-10-12T01:54:17.746Z,22.88
2018-10-12T01:54:55.217Z,22.87
2018-10-12T01:55:32.771Z,22.88
2018-10-12T01:56:10.445Z,22.88
2018-10-12T01:56:48.428Z,22.88
2018-10-12T01:57:25.958Z,22.88
2018-10-12T01:58:03.494Z,22.89
2018-10-12T01:58:41.038Z,22.88
2018-10-12T01:59:18.724Z,22.88
2018-10-12T01:59:56.369Z,22.88
2018-10-12T02:00:33.919Z,22.88
2018-10-12T02:01:11.317Z,22.89
2018-10-12T02:01:48.859Z,22.87
2018-10-12T02:02:26.695Z,22.87
2018-10-12T02:03:04.462Z,22.88
2018-10-12T02:03:42.097Z,22.88
2018-10-12T02:04:19.678Z,22.88
2018-10-12T02:04:57.270Z,22.87
2018-10-12T02:05:34.974Z,22.88
2018-10-12T02:06:12.897Z,22.88
2018-10-12T02:06:50.525Z,22.88
2018-10-12T02:07:28.587Z,22.88
2018-10-12T02:08:06.242Z,22.87
2018-10-12T02:08:43.987Z,22.87
2018-10-12T02:09:21.709Z,22.87
2018-10-12T02:09:59.419Z,22.88
2018-10-12T02:10:36.939Z,22.87
2018-10-12T02:11:14.409Z,22.87
2018-10-12T02:11:52.154Z,22.88
2018-10-12T02:12:29.611Z,22.88
2018-10-12T02:13:07.413Z,22.88
2018-10-12T02:13:45.010Z,22.87
2018-10-12T02:14:22.582Z,22.87
2018-10-12T02:15:00.134Z,22.88
2018-10-12T02:15:37.720Z,22.88
2018-10-12T02:16:15.361Z,22.86
2018-10-12T02:16:52.849Z,22.87
2018-10-12T02:17:30.484Z,22.87
2018-10-12T02:18:07.841Z,22.88
2018-10-12T02:18:45.574Z,22.87
2018-10-12T02:19:23.113Z,22.88
2018-10-12T02:20:00.853Z,22.87
2018-10-12T02:20:38.656Z,22.87
2018-10-12T02:21:16.142Z,22.87
2018-10-12T02:21:53.646Z,22.88
2018-10-12T02:22:31.352Z,22.86
2018-10-12T02:23:08.870Z,22.87
2018-10-12T02:23:46.627Z,22.86
2018-10-12T02:24:24.264Z,22.87
2018-10-12T02:25:01.938Z,22.86
2018-10-12T02:25:39.726Z,22.88
2018-10-12T02:26:17.389Z,22.87
2018-10-12T02:26:54.784Z,22.87
2018-10-12T02:27:32.394Z,22.87
2018-10-12T02:28:10.039Z,22.87
2018-10-12T02:28:47.626Z,22.86
2018-10-12T02:29:25.333Z,22.87
2018-10-12T02:30:02.914Z,22.87
2018-10-12T02:30:40.397Z,22.87
2018-10-12T02:31:18.035Z,22.87
2018-10-12T02:31:55.734Z,22.87
2018-10-12T02:32:33.147Z,22.87
2018-10-12T02:33:10.956Z,22.87
2018-10-12T02:33:48.506Z,22.86
2018-10-12T02:34:26.111Z,22.87
2018-10-12T02:35:03.723Z,22.88
2018-10-12T02:35:41.372Z,22.88
2018-10-12T02:36:18.986Z,22.87
2018-10-12T02:36:56.521Z,22.86
2018-10-12T02:37:34.113Z,22.87
2018-10-12T02:38:12.105Z,22.87
2018-10-12T02:38:49.656Z,22.87
2018-10-12T02:39:27.262Z,22.88
2018-10-12T02:40:04.923Z,22.87
2018-10-12T02:40:42.497Z,22.87
2018-10-12T02:41:20.047Z,22.88
2018-10-12T02:41:57.606Z,22.87
2018-10-12T02:42:35.148Z,22.87
2018-10-12T02:43:13.064Z,22.87
2018-10-12T02:43:50.471Z,22.87
2018-10-12T02:44:28.032Z,22.87
2018-10-12T02:45:05.673Z,22.86
2018-10-12T02:45:43.160Z,22.87
2018-10-12T02:46:20.916Z,22.88
2018-10-12T02:46:58.611Z,22.87
2018-10-12T02:47:36.253Z,22.86
2018-10-12T02:48:13.913Z,22.87
2018-10-12T02:48:51.649Z,22.86
2018-10-12T02:49:29.158Z,22.88
2018-10-12T02:50:06.972Z,22.87
2018-10-12T02:50:44.657Z,22.87
2018-10-12T02:51:22.247Z,22.87
2018-10-12T02:51:59.960Z,22.86
2018-10-12T02:52:37.714Z,22.88
2018-10-12T02:53:15.365Z,22.87
2018-10-12T02:53:53.011Z,22.87
2018-10-12T02:54:30.591Z,22.87
2018-10-12T02:55:08.111Z,22.87
2018-10-12T02:55:45.706Z,22.87
2018-10-12T02:56:23.266Z,22.87
2018-10-12T02:57:00.990Z,22.87
2018-10-12T02:57:38.566Z,22.86
2018-10-12T02:58:16.151Z,22.87
2018-10-12T02:58:53.666Z,22.87
2018-10-12T02:59:31.381Z,22.87
2018-10-12T03:00:08.913Z,22.87
2018-10-12T03:00:46.593Z,22.87
2018-10-12T03:01:24.120Z,22.88
2018-10-12T03:02:01.818Z,22.87
2018-10-12T03:02:39.425Z,22.87
2018-10-12T03:03:16.966Z,22.87
2018-10-12T03:03:54.484Z,22.87
2018-10-12T03:04:31.964Z,22.87
2018-10-12T03:05:09.672Z,22.87
2018-10-12T03:05:47.374Z,22.87
2018-10-12T03:06:24.945Z,22.86
2018-10-12T03:07:02.553Z,22.87
2018-10-12T03:07:40.175Z,22.87
2018-10-12T03:08:17.706Z,22.87
2018-10-12T03:08:55.214Z,22.86
2018-10-12T03:09:32.726Z,22.87
2018-10-12T03:10:10.377Z,22.87
2018-10-12T03:10:48.285Z,22.87
2018-10-12T03:11:25.774Z,22.87
2018-10-12T03:12:03.353Z,22.87
2018-10-12T03:12:41.064Z,22.86
2018-10-12T03:13:18.654Z,22.87
2018-10-12T03:13:56.327Z,22.87
2018-10-12T03:14:33.974Z,22.87
2018-10-12T03:15:11.478Z,22.87
2018-10-12T03:15:49.248Z,22.88
2018-10-12T03:16:26.805Z,22.87
2018-10-12T03:17:04.506Z,22.87
2018-10-12T03:17:42.219Z,22.86
2018-10-12T03:18:19.844Z,22.87
2018-10-12T03:18:57.440Z,22.86
2018-10-12T03:19:35.011Z,22.86
2018-10-12T03:20:12.823Z,22.86
2018-10-12T03:20:50.297Z,22.86
2018-10-12T03:21:27.967Z,22.87
2018-10-12T03:22:05.595Z,22.86
2018-10-12T03:22:43.468Z,22.86
2018-10-12T03:23:21.295Z,22.87
2018-10-12T03:23:59.066Z,22.87
2018-10-12T03:24:36.750Z,22.87
2018-10-12T03:25:14.290Z,22.87
2018-10-12T03:25:51.954Z,22.88
2018-10-12T03:26:29.735Z,22.87
2018-10-12T03:27:07.237Z,22.87
2018-10-12T03:27:44.960Z,22.87
2018-10-12T03:28:22.667Z,22.86
2018-10-12T03:29:00.393Z,22.87
2018-10-12T03:29:37.934Z,22.86
2018-10-12T03:30:15.565Z,22.87
2018-10-12T03:30:53.173Z,22.87
2018-10-12T03:31:30.755Z,22.86
2018-10-12T03:32:08.341Z,22.86
2018-10-12T03:32:46.159Z,22.86
2018-10-12T03:33:23.553Z,22.87
2018-10-12T03:34:01.088Z,22.88
2018-10-12T03:34:38.638Z,22.87
2018-10-12T03:35:16.360Z,22.87
2018-10-12T03:35:54.187Z,22.87
2018-10-12T03:36:31.916Z,22.86
2018-10-12T03:37:09.712Z,22.87
2018-10-12T03:37:47.372Z,22.86
2018-10-12T03:38:25.062Z,22.86
2018-10-12T03:39:02.682Z,22.87
2018-10-12T03:39:40.493Z,22.86
2018-10-12T03:40:18.331Z,22.86
2018-10-12T03:40:55.952Z,22.87
2018-10-12T03:41:33.626Z,22.86
2018-10-12T03:42:11.113Z,22.87
2018-10-12T03:42:49.072Z,22.87
2018-10-12T03:43:26.558Z,22.87
2018-10-12T03:44:04.125Z,22.87
2018-10-12T03:44:41.773Z,22.87
2018-10-12T03:45:19.357Z,22.87
2018-10-12T03:45:57.066Z,22.87
2018-10-12T03:46:34.948Z,22.86
2018-10-12T03:47:12.603Z,22.87
2018-10-12T03:47:50.033Z,22.86
2018-10-12T03:48:27.916Z,22.86
2018-10-12T03:49:05.623Z,22.86
2018-10-12T03:49:43.280Z,22.86
2018-10-12T03:50:20.854Z,22.85
2018-10-12T03:50:58.549Z,22.86
2018-10-12T03:51:36.378Z,22.87
2018-10-12T03:52:14.220Z,22.85
2018-10-12T03:52:51.838Z,22.87
2018-10-12T03:53:29.638Z,22.85
2018-10-12T03:54:07.221Z,22.86
2018-10-12T03:54:44.765Z,22.85
2018-10-12T03:55:22.388Z,22.86
2018-10-12T03:55:59.994Z,22.85
2018-10-12T03:56:37.570Z,22.86
2018-10-12T03:57:15.150Z,22.86
2018-10-12T03:57:52.785Z,22.86
2018-10-12T03:58:30.448Z,22.86
2018-10-12T03:59:08.097Z,22.86
2018-10-12T03:59:45.618Z,22.86
2018-10-12T04:00:23.254Z,22.87
2018-10-12T04:01:00.846Z,22.86
2018-10-12T04:01:38.565Z,22.86
2018-10-12T04:02:16.200Z,22.86
2018-10-12T04:02:53.930Z,22.86
2018-10-12T04:03:31.579Z,22.86
2018-10-12T04:04:09.389Z,22.86
2018-10-12T04:04:47.069Z,22.87
2018-10-12T04:05:24.669Z,22.85
2018-10-12T04:06:02.137Z,22.85
2018-10-12T04:06:39.660Z,22.86
2018-10-12T04:07:17.416Z,22.87
2018-10-12T04:07:54.927Z,22.86
2018-10-12T04:08:32.542Z,22.86
2018-10-12T04:09:10.260Z,22.86
2018-10-12T04:09:47.998Z,22.86
2018-10-12T04:10:25.704Z,22.86
2018-10-12T04:11:03.304Z,22.85
2018-10-12T04:11:40.719Z,22.86
2018-10-12T04:12:18.427Z,22.86
2018-10-12T04:12:56.093Z,22.86
2018-10-12T04:13:33.738Z,22.86
2018-10-12T04:14:11.666Z,22.85
2018-10-12T04:14:49.170Z,22.87
2018-10-12T04:15:26.723Z,22.86
2018-10-12T04:16:04.249Z,22.85
2018-10-12T04:16:41.874Z,22.86
2018-10-12T04:17:19.382Z,22.85
2018-10-12T04:17:56.893Z,22.86
2018-10-12T04:18:34.527Z,22.86
2018-10-12T04:19:12.126Z,22.85
2018-10-12T04:19:49.569Z,22.86
2018-10-12T04:20:27.220Z,22.85
2018-10-12T04:21:04.932Z,22.85
2018-10-12T04:21:42.604Z,22.86
2018-10-12T04:22:20.209Z,22.85
2018-10-12T04:22:57.736Z,22.85
2018-10-12T04:23:35.254Z,22.85
2018-10-12T04:24:12.892Z,22.85
2018-10-12T04:24:50.393Z,22.85
2018-10-12T04:25:27.948Z,22.85
2018-10-12T04:26:05.663Z,22.85
2018-10-12T04:26:43.565Z,22.85
2018-10-12T04:27:20.908Z,22.85
2018-10-12T04:27:58.468Z,22.85
2018-10-12T04:28:36.042Z,22.85
2018-10-12T04:29:13.891Z,22.85
2018-10-12T04:29:51.447Z,22.85
2018-10-12T04:30:28.914Z,22.85
2018-10-12T04:31:06.676Z,22.85
2018-10-12T04:31:44.388Z,22.84
2018-10-12T04:32:21.907Z,22.85
2018-10-12T04:32:59.648Z,22.85
2018-10-12T04:33:37.226Z,22.85
2018-10-12T04:34:14.757Z,22.85
2018-10-12T04:34:52.430Z,22.85
2018-10-12T04:35:30.177Z,22.85
2018-10-12T04:36:07.835Z,22.85
2018-10-12T04:36:45.588Z,22.84
2018-10-12T04:37:22.970Z,22.84
2018-10-12T04:38:00.747Z,22.84
2018-10-12T04:38:38.370Z,22.84
2018-10-12T04:39:15.799Z,22.85
2018-10-12T04:39:53.628Z,22.84
2018-10-12T04:40:31.054Z,22.83
2018-10-12T04:41:08.670Z,22.84
2018-10-12T04:41:46.340Z,22.85
2018-10-12T04:42:23.996Z,22.84
2018-10-12T04:43:01.675Z,22.84
2018-10-12T04:43:39.427Z,22.83
2018-10-12T04:44:16.970Z,22.84
2018-10-12T04:44:54.609Z,22.83
2018-10-12T04:45:32.270Z,22.84
2018-10-12T04:46:10.257Z,22.83
2018-10-12T04:46:47.936Z,22.83
2018-10-12T04:47:25.557Z,22.82
2018-10-12T04:48:02.956Z,22.83
2018-10-12T04:48:40.560Z,22.83
2018-10-12T04:49:18.554Z,22.84
2018-10-12T04:49:55.908Z,22.83
2018-10-12T04:50:33.571Z,22.83
2018-10-12T04:51:11.139Z,22.84
2018-10-12T04:51:49.267Z,22.84
2018-10-12T04:52:26.944Z,22.84
2018-10-12T04:53:04.834Z,22.83
2018-10-12T04:53:42.753Z,22.83
2018-10-12T04:54:20.594Z,22.84
2018-10-12T04:54:58.304Z,22.84
2018-10-12T04:55:35.934Z,22.84
2018-10-12T04:56:13.542Z,22.83
2018-10-12T04:56:51.803Z,22.83
2018-10-12T04:57:29.312Z,22.83
2018-10-12T04:58:06.871Z,22.84
2018-10-12T04:58:44.338Z,22.84
2018-10-12T04:59:21.956Z,22.84
2018-10-12T04:59:59.752Z,22.83
2018-10-12T05:00:37.803Z,22.83
2018-10-12T05:01:15.529Z,22.83
2018-10-12T05:01:53.680Z,22.83
2018-10-12T05:02:31.632Z,22.83
2018-10-12T05:03:09.112Z,22.84
2018-10-12T05:03:46.957Z,22.84
2018-10-12T05:04:24.511Z,22.83
2018-10-12T05:05:02.189Z,22.82
2018-10-12T05:05:40.135Z,22.83
2018-10-12T05:06:18.044Z,22.83
2018-10-12T05:06:55.864Z,22.83
2018-10-12T05:07:33.799Z,22.83
2018-10-12T05:08:11.679Z,22.84
2018-10-12T05:08:49.477Z,22.82
2018-10-12T05:09:27.503Z,22.83
2018-10-12T05:10:05.343Z,22.83
2018-10-12T05:10:43.276Z,22.83
2018-10-12T05:11:21.172Z,22.82
2018-10-12T05:11:59.119Z,22.82
2018-10-12T05:12:36.929Z,22.83
2018-10-12T05:13:14.566Z,22.82
2018-10-12T05:13:52.282Z,22.83
2018-10-12T05:14:29.997Z,22.82
2018-10-12T05:15:07.853Z,22.82
2018-10-12T05:15:45.789Z,22.82
2018-10-12T05:16:23.581Z,22.83
2018-10-12T05:17:01.382Z,22.82
2018-10-12T05:17:39.398Z,22.82
2018-10-12T05:18:17.140Z,22.83
2018-10-12T05:18:54.848Z,22.82
2018-10-12T05:19:32.456Z,22.82
2018-10-12T05:20:10.309Z,22.82
2018-10-12T05:20:48.168Z,22.83
2018-10-12T05:21:25.817Z,22.83
2018-10-12T05:22:03.563Z,22.82
2018-10-12T05:22:41.196Z,22.82
2018-10-12T05:23:19.137Z,22.82
2018-10-12T05:23:56.938Z,22.83
2018-10-12T05:24:34.635Z,22.82
2018-10-12T05:25:12.350Z,22.82
2018-10-12T05:25:50.026Z,22.82
2018-10-12T05:26:27.668Z,22.82
2018-10-12T05:27:05.373Z,22.82
2018-10-12T05:27:43.321Z,22.82
2018-10-12T05:28:21.157Z,22.82
2018-10-12T05:28:58.723Z,22.82
2018-10-12T05:29:36.518Z,22.83
2018-10-12T05:30:14.356Z,22.83
2018-10-12T05:30:52.198Z,22.82
2018-10-12T05:31:30.214Z,22.83
2018-10-12T05:32:08.010Z,22.82
2018-10-12T05:32:45.747Z,22.83
2018-10-12T05:33:24.175Z,22.82
2018-10-12T05:34:02.137Z,22.82
2018-10-12T05:34:39.923Z,22.83
2018-10-12T05:35:17.755Z,22.82
2018-10-12T05:35:55.507Z,22.82
2018-10-12T05:36:33.382Z,22.82
2018-10-12T05:37:11.197Z,22.83
2018-10-12T05:37:49.034Z,22.82
2018-10-12T05:38:26.885Z,22.82
2018-10-12T05:39:04.870Z,22.83
2018-10-12T05:39:42.776Z,22.83
2018-10-12T05:40:20.507Z,22.82
2018-10-12T05:40:58.125Z,22.81
2018-10-12T05:41:35.989Z,22.82
2018-10-12T05:42:13.626Z,22.82
2018-10-12T05:42:51.488Z,22.82
2018-10-12T05:44:12.516Z,22.82
2018-10-12T05:44:50.022Z,22.82
2018-10-12T05:45:27.922Z,22.81
2018-10-12T05:46:05.552Z,22.81
2018-10-12T05:46:43.161Z,22.82
2018-10-12T05:47:20.733Z,22.82
2018-10-12T05:47:58.382Z,22.81
2018-10-12T05:48:35.906Z,22.81
2018-10-12T05:49:13.546Z,22.82
2018-10-12T05:49:51.251Z,22.82
2018-10-12T05:50:28.973Z,22.81
2018-10-12T05:51:06.898Z,22.82
2018-10-12T05:51:44.700Z,22.81
2018-10-12T05:52:22.401Z,22.82
2018-10-12T05:53:00.085Z,22.82
2018-10-12T05:53:37.990Z,22.83
2018-10-12T05:54:16.066Z,22.82
2018-10-12T05:54:53.822Z,22.79
2018-10-12T05:55:31.482Z,22.82
2018-10-12T05:56:09.315Z,22.80
2018-10-12T05:56:46.903Z,22.80
2018-10-12T05:57:24.661Z,22.81
2018-10-12T05:58:02.871Z,22.82
2018-10-12T05:58:40.978Z,22.79
2018-10-12T05:59:18.754Z,22.80
2018-10-12T05:59:56.406Z,22.80
2018-10-12T06:00:34.390Z,22.81
2018-10-12T06:01:12.355Z,22.79
2018-10-12T06:01:50.189Z,22.80
2018-10-12T06:02:27.882Z,22.80
2018-10-12T06:03:05.541Z,22.80
2018-10-12T06:03:43.279Z,22.81
2018-10-12T06:04:21.681Z,22.79
2018-10-12T06:04:59.621Z,22.79
2018-10-12T06:05:37.324Z,22.82
2018-10-12T06:06:14.809Z,22.82
2018-10-12T06:06:52.621Z,22.82
2018-10-12T06:07:30.587Z,22.81
2018-10-12T06:08:08.369Z,22.81
2018-10-12T06:08:46.090Z,22.81
2018-10-12T06:09:24.027Z,22.81
2018-10-12T06:10:01.674Z,22.80
2018-10-12T06:10:39.147Z,22.80
2018-10-12T06:11:17.105Z,22.81
2018-10-12T06:11:54.546Z,22.80
2018-10-12T06:12:32.351Z,22.80
2018-10-12T06:13:10.478Z,22.81
2018-10-12T06:13:48.115Z,22.81
2018-10-12T06:14:25.750Z,22.81
2018-10-12T06:15:03.496Z,22.81
2018-10-12T06:15:41.490Z,22.81
2018-10-12T06:16:19.409Z,22.81
2018-10-12T06:16:56.933Z,22.80
2018-10-12T06:17:34.437Z,22.80
2018-10-12T06:18:12.075Z,22.79
2018-10-12T06:18:49.836Z,22.79
2018-10-12T06:19:27.682Z,22.81
2018-10-12T06:20:05.564Z,22.78
2018-10-12T06:20:43.300Z,22.79
2018-10-12T06:21:21.269Z,22.79
2018-10-12T06:21:59.013Z,22.79
2018-10-12T06:22:36.753Z,22.79
2018-10-12T06:23:14.471Z,22.80
2018-10-12T06:23:52.320Z,22.80
2018-10-12T06:24:30.270Z,22.79
2018-10-12T06:25:08.139Z,22.79
2018-10-12T06:25:45.891Z,22.79
2018-10-12T06:26:23.566Z,22.80
2018-10-12T06:27:01.322Z,22.79
2018-10-12T06:27:39.212Z,22.80
2018-10-12T06:28:17.034Z,22.80
2018-10-12T06:28:54.671Z,22.80
2018-10-12T06:29:32.503Z,22.79
2018-10-12T06:30:10.186Z,22.79
2018-10-12T06:30:48.223Z,22.79
2018-10-12T06:31:26.086Z,22.79
2018-10-12T06:32:03.948Z,22.79
2018-10-12T06:32:41.924Z,22.79
2018-10-12T06:33:19.507Z,22.79
2018-10-12T06:33:57.104Z,22.80
2018-10-12T06:34:34.696Z,22.79
2018-10-12T06:35:12.920Z,22.79
2018-10-12T06:35:50.493Z,22.80
2018-10-12T06:36:28.374Z,22.80
2018-10-12T06:37:06.335Z,22.81
2018-10-12T06:37:43.912Z,22.80
2018-10-12T06:38:21.725Z,22.80
2018-10-12T06:38:59.434Z,22.80
2018-10-12T06:39:37.095Z,22.81
2018-10-12T06:40:14.694Z,22.81
2018-10-12T06:40:52.448Z,22.81
2018-10-12T06:41:30.393Z,22.81
2018-10-12T06:42:08.771Z,22.81
2018-10-12T06:42:46.562Z,22.81
2018-10-12T06:43:24.346Z,22.82
2018-10-12T06:44:02.233Z,22.82
2018-10-12T06:44:39.836Z,22.83
2018-10-12T06:45:17.468Z,22.82
2018-10-12T06:45:55.523Z,22.82
2018-10-12T06:46:33.406Z,22.83
2018-10-12T06:47:10.970Z,22.83
2018-10-12T06:47:48.752Z,22.83
2018-10-12T06:48:26.513Z,22.83
2018-10-12T06:49:04.200Z,22.82
2018-10-12T06:49:41.973Z,22.83
2018-10-12T06:50:19.572Z,22.83
2018-10-12T06:50:57.115Z,22.83
2018-10-12T06:51:35.030Z,22.83
2018-10-12T06:52:12.904Z,22.82
2018-10-12T06:52:50.930Z,22.83
2018-10-12T06:53:28.574Z,22.83
2018-10-12T06:54:06.280Z,22.83
2018-10-12T06:54:44.083Z,22.84
2018-10-12T06:55:21.559Z,22.84
2018-10-12T06:55:59.319Z,22.84
2018-10-12T06:56:37.092Z,22.83
2018-10-12T06:57:14.925Z,22.84
2018-10-12T06:57:52.737Z,22.84
2018-10-12T06:58:30.683Z,22.84
2018-10-12T06:59:08.163Z,22.84
2018-10-12T06:59:45.845Z,22.85
2018-10-12T07:00:23.462Z,22.85
2018-10-12T07:01:01.195Z,22.85
2018-10-12T07:01:38.797Z,22.84
2018-10-12T07:02:16.447Z,22.84
2018-10-12T07:02:54.175Z,22.84
2018-10-12T07:03:31.631Z,22.83
2018-10-12T07:04:09.250Z,22.85
2018-10-12T07:04:46.935Z,22.84
2018-10-12T07:05:24.638Z,22.84
2018-10-12T07:06:02.425Z,22.84
2018-10-12T07:06:40.304Z,22.86
2018-10-12T07:07:17.918Z,22.85
2018-10-12T07:07:55.508Z,22.86
2018-10-12T07:08:33.202Z,22.86
2018-10-12T07:09:10.972Z,22.85
2018-10-12T07:09:48.810Z,22.85
2018-10-12T07:10:26.441Z,22.85
2018-10-12T07:11:04.055Z,22.86
2018-10-12T07:11:41.593Z,22.86
2018-10-12T07:12:19.080Z,22.85
2018-10-12T07:12:56.626Z,22.86
2018-10-12T07:13:34.170Z,22.86
2018-10-12T07:14:12.281Z,22.86
2018-10-12T07:14:49.509Z,22.86
2018-10-12T07:15:27.443Z,22.86
2018-10-12T07:16:05.163Z,22.86
2018-10-12T07:16:42.942Z,22.86
2018-10-12T07:17:20.725Z,22.86
2018-10-12T07:17:58.524Z,22.86
2018-10-12T07:18:36.274Z,22.87
2018-10-12T07:19:13.804Z,22.86
2018-10-12T07:19:51.426Z,22.86
2018-10-12T07:20:29.138Z,22.86
2018-10-12T07:21:07.067Z,22.86
2018-10-12T07:21:44.893Z,22.86
2018-10-12T07:22:22.531Z,22.86
2018-10-12T07:23:00.144Z,22.87
2018-10-12T07:23:37.826Z,22.86
2018-10-12T07:24:15.906Z,22.87
2018-10-12T07:24:53.545Z,22.86
2018-10-12T07:25:31.437Z,22.86
2018-10-12T07:26:09.003Z,22.86
2018-10-12T07:26:46.697Z,22.87
2018-10-12T07:27:24.628Z,22.87
2018-10-12T07:28:02.662Z,22.86
2018-10-12T07:28:40.329Z,22.87
2018-10-12T07:29:18.361Z,22.86
2018-10-12T07:29:56.319Z,22.86
2018-10-12T07:30:34.125Z,22.88
2018-10-12T07:31:11.878Z,22.87
2018-10-12T07:31:49.670Z,22.87
2018-10-12T07:32:27.355Z,22.86
2018-10-12T07:33:05.000Z,22.87
2018-10-12T07:33:42.605Z,22.87
2018-10-12T07:34:20.284Z,22.87
2018-10-12T07:34:58.158Z,22.86
2018-10-12T07:35:36.177Z,22.86
2018-10-12T07:36:13.973Z,22.86
2018-10-12T07:36:51.600Z,22.87
2018-10-12T07:37:29.224Z,22.87
2018-10-12T07:38:06.990Z,22.87
2018-10-12T07:38:44.822Z,22.87
2018-10-12T07:39:22.644Z,22.88
2018-10-12T07:40:00.314Z,22.87
2018-10-12T07:40:38.153Z,22.87
2018-10-12T07:41:15.878Z,22.87
2018-10-12T07:41:53.466Z,22.87
2018-10-12T07:42:31.570Z,22.86
2018-10-12T07:43:09.604Z,22.87
2018-10-12T07:43:47.612Z,22.87
2018-10-12T07:44:25.149Z,22.87
2018-10-12T07:45:02.790Z,22.87
2018-10-12T07:45:40.375Z,22.87
2018-10-12T07:46:18.066Z,22.88
2018-10-12T07:46:55.603Z,22.88
2018-10-12T07:47:33.445Z,22.87
2018-10-12T07:48:11.210Z,22.87
2018-10-12T07:48:48.734Z,22.87
2018-10-12T07:49:26.260Z,22.88
2018-10-12T07:50:04.199Z,22.88
2018-10-12T07:50:41.625Z,22.88
2018-10-12T07:51:19.387Z,22.88
2018-10-12T07:51:57.147Z,22.87
2018-10-12T07:52:34.887Z,22.88
2018-10-12T07:53:12.871Z,22.87
2018-10-12T07:53:50.399Z,22.89
2018-10-12T07:54:28.087Z,22.88
2018-10-12T07:55:06.334Z,22.88
2018-10-12T07:55:44.001Z,22.88
2018-10-12T07:56:21.716Z,22.89
2018-10-12T07:56:59.202Z,22.88
2018-10-12T07:57:36.910Z,22.88
2018-10-12T07:58:14.679Z,22.88
2018-10-12T07:58:52.751Z,22.89
2018-10-12T07:59:30.466Z,22.89
2018-10-12T08:00:51.317Z,22.89
2018-10-12T08:01:28.952Z,22.88
2018-10-12T08:02:07.160Z,22.88
2018-10-12T08:02:44.891Z,22.87
2018-10-12T08:03:22.884Z,22.89
2018-10-12T08:04:00.729Z,22.89
2018-10-12T08:04:38.360Z,22.88
2018-10-12T08:05:17.390Z,22.83
2018-10-12T08:05:55.103Z,22.88
2018-10-12T08:06:32.890Z,22.88
2018-10-12T08:07:10.703Z,22.88
2018-10-12T08:07:48.462Z,22.88
2018-10-12T08:08:26.339Z,22.87